sensor_id;sensor_type;location;lat;lon;timestamp;P1;durP1;ratioP1;P2;durP2;ratioP2
19312;SDS011;9791;50.820;4.406;2022-11-20T00:01:55;36.37;;;21.43;;
19312;SDS011;9791;50.820;4.406;2022-11-20T00:04:21;37.57;;;22.37;;
19312;SDS011;9791;50.820;4.406;2022-11-20T00:06:47;39.83;;;22.20;;
19312;SDS011;9791;50.820;4.406;2022-11-20T00:09:13;41.63;;;23.03;;
19312;SDS011;9791;50.820;4.406;2022-11-20T00:11:39;39.80;;;22.53;;
19312;SDS011;9791;50.820;4.406;2022-11-20T00:14:05;39.47;;;23.40;;
19312;SDS011;9791;50.820;4.406;2022-11-20T00:16:32;43.67;;;23.83;;
19312;SDS011;9791;50.820;4.406;2022-11-20T00:18:58;43.30;;;23.03;;
19312;SDS011;9791;50.820;4.406;2022-11-20T00:21:25;36.10;;;21.67;;
19312;SDS011;9791;50.820;4.406;2022-11-20T00:23:52;40.43;;;22.70;;
19312;SDS011;9791;50.820;4.406;2022-11-20T00:26:19;38.00;;;22.53;;
19312;SDS011;9791;50.820;4.406;2022-11-20T00:28:50;40.37;;;22.67;;
19312;SDS011;9791;50.820;4.406;2022-11-20T00:31:17;37.23;;;21.10;;
19312;SDS011;9791;50.820;4.406;2022-11-20T00:33:43;35.27;;;20.40;;
19312;SDS011;9791;50.820;4.406;2022-11-20T00:36:11;34.70;;;20.83;;
19312;SDS011;9791;50.820;4.406;2022-11-20T00:38:37;38.90;;;22.00;;
19312;SDS011;9791;50.820;4.406;2022-11-20T00:41:05;35.07;;;21.37;;
19312;SDS011;9791;50.820;4.406;2022-11-20T00:43:31;35.07;;;20.83;;
19312;SDS011;9791;50.820;4.406;2022-11-20T00:45:57;33.20;;;20.73;;
19312;SDS011;9791;50.820;4.406;2022-11-20T00:48:24;36.07;;;21.30;;
19312;SDS011;9791;50.820;4.406;2022-11-20T00:50:50;33.60;;;19.83;;
19312;SDS011;9791;50.820;4.406;2022-11-20T00:53:16;36.33;;;20.90;;
19312;SDS011;9791;50.820;4.406;2022-11-20T00:55:42;33.70;;;21.13;;
19312;SDS011;9791;50.820;4.406;2022-11-20T00:58:07;37.77;;;22.30;;
19312;SDS011;9791;50.820;4.406;2022-11-20T01:00:33;32.87;;;20.80;;
19312;SDS011;9791;50.820;4.406;2022-11-20T01:02:59;33.47;;;20.37;;
19312;SDS011;9791;50.820;4.406;2022-11-20T01:05:25;32.53;;;20.30;;
19312;SDS011;9791;50.820;4.406;2022-11-20T01:07:51;33.20;;;21.50;;
19312;SDS011;9791;50.820;4.406;2022-11-20T01:10:17;36.83;;;20.97;;
19312;SDS011;9791;50.820;4.406;2022-11-20T01:12:43;39.27;;;21.90;;
19312;SDS011;9791;50.820;4.406;2022-11-20T01:15:29;32.90;;;19.27;;
19312;SDS011;9791;50.820;4.406;2022-11-20T01:17:55;31.83;;;20.03;;
19312;SDS011;9791;50.820;4.406;2022-11-20T01:20:21;33.97;;;20.13;;
19312;SDS011;9791;50.820;4.406;2022-11-20T01:22:47;34.53;;;20.73;;
19312;SDS011;9791;50.820;4.406;2022-11-20T01:25:14;31.40;;;20.50;;
19312;SDS011;9791;50.820;4.406;2022-11-20T01:27:40;35.73;;;20.17;;
19312;SDS011;9791;50.820;4.406;2022-11-20T01:30:06;37.35;;;21.30;;
19312;SDS011;9791;50.820;4.406;2022-11-20T01:32:32;32.63;;;20.10;;
19312;SDS011;9791;50.820;4.406;2022-11-20T01:34:58;30.67;;;19.90;;
19312;SDS011;9791;50.820;4.406;2022-11-20T01:37:24;35.90;;;20.97;;
19312;SDS011;9791;50.820;4.406;2022-11-20T01:39:50;31.73;;;19.20;;
19312;SDS011;9791;50.820;4.406;2022-11-20T01:42:16;30.33;;;19.70;;
19312;SDS011;9791;50.820;4.406;2022-11-20T01:45:01;33.15;;;18.80;;
19312;SDS011;9791;50.820;4.406;2022-11-20T01:49:55;35.30;;;21.57;;
19312;SDS011;9791;50.820;4.406;2022-11-20T01:52:36;34.90;;;20.47;;
19312;SDS011;9791;50.820;4.406;2022-11-20T01:55:05;33.40;;;19.40;;
19312;SDS011;9791;50.820;4.406;2022-11-20T01:57:33;33.90;;;20.17;;
19312;SDS011;9791;50.820;4.406;2022-11-20T02:00:03;34.43;;;20.03;;
19312;SDS011;9791;50.820;4.406;2022-11-20T02:02:29;35.33;;;20.27;;
19312;SDS011;9791;50.820;4.406;2022-11-20T02:04:56;34.20;;;20.27;;
19312;SDS011;9791;50.820;4.406;2022-11-20T02:07:24;33.90;;;20.30;;
19312;SDS011;9791;50.820;4.406;2022-11-20T02:09:50;33.00;;;19.60;;
19312;SDS011;9791;50.820;4.406;2022-11-20T02:12:17;33.58;;;19.27;;
19312;SDS011;9791;50.820;4.406;2022-11-20T02:15:01;36.50;;;20.00;;
19312;SDS011;9791;50.820;4.406;2022-11-20T02:17:27;32.38;;;19.23;;
19312;SDS011;9791;50.820;4.406;2022-11-20T02:19:53;32.55;;;18.98;;
19312;SDS011;9791;50.820;4.406;2022-11-20T02:22:22;35.07;;;21.97;;
19312;SDS011;9791;50.820;4.406;2022-11-20T02:24:54;31.85;;;20.45;;
19312;SDS011;9791;50.820;4.406;2022-11-20T02:27:20;35.55;;;20.80;;
19312;SDS011;9791;50.820;4.406;2022-11-20T02:30:08;33.58;;;19.05;;
19312;SDS011;9791;50.820;4.406;2022-11-20T02:32:34;32.97;;;20.40;;
19312;SDS011;9791;50.820;4.406;2022-11-20T02:37:49;34.88;;;19.40;;
19312;SDS011;9791;50.820;4.406;2022-11-20T02:40:16;34.38;;;20.40;;
19312;SDS011;9791;50.820;4.406;2022-11-20T02:42:42;31.98;;;18.08;;
19312;SDS011;9791;50.820;4.406;2022-11-20T02:45:08;31.23;;;18.15;;
19312;SDS011;9791;50.820;4.406;2022-11-20T02:47:34;32.13;;;18.60;;
19312;SDS011;9791;50.820;4.406;2022-11-20T02:50:00;33.85;;;17.98;;
19312;SDS011;9791;50.820;4.406;2022-11-20T02:52:26;33.15;;;19.55;;
19312;SDS011;9791;50.820;4.406;2022-11-20T02:54:52;31.83;;;18.67;;
19312;SDS011;9791;50.820;4.406;2022-11-20T02:57:18;31.33;;;16.80;;
19312;SDS011;9791;50.820;4.406;2022-11-20T02:59:44;31.13;;;17.42;;
19312;SDS011;9791;50.820;4.406;2022-11-20T03:02:10;27.70;;;16.60;;
19312;SDS011;9791;50.820;4.406;2022-11-20T03:04:36;30.80;;;17.98;;
19312;SDS011;9791;50.820;4.406;2022-11-20T03:07:03;31.02;;;17.85;;
19312;SDS011;9791;50.820;4.406;2022-11-20T03:09:29;33.78;;;17.30;;
19312;SDS011;9791;50.820;4.406;2022-11-20T03:11:55;29.00;;;16.05;;
19312;SDS011;9791;50.820;4.406;2022-11-20T03:14:21;26.52;;;15.23;;
19312;SDS011;9791;50.820;4.406;2022-11-20T03:16:47;27.95;;;15.15;;
19312;SDS011;9791;50.820;4.406;2022-11-20T03:19:12;26.20;;;15.30;;
19312;SDS011;9791;50.820;4.406;2022-11-20T03:21:39;26.88;;;14.63;;
19312;SDS011;9791;50.820;4.406;2022-11-20T03:24:05;24.20;;;13.95;;
19312;SDS011;9791;50.820;4.406;2022-11-20T03:26:31;26.70;;;15.18;;
19312;SDS011;9791;50.820;4.406;2022-11-20T03:28:58;28.90;;;15.50;;
19312;SDS011;9791;50.820;4.406;2022-11-20T03:31:25;30.23;;;15.82;;
19312;SDS011;9791;50.820;4.406;2022-11-20T03:33:51;27.90;;;15.18;;
19312;SDS011;9791;50.820;4.406;2022-11-20T03:36:18;26.60;;;15.18;;
19312;SDS011;9791;50.820;4.406;2022-11-20T03:38:45;29.33;;;15.48;;
19312;SDS011;9791;50.820;4.406;2022-11-20T03:41:16;27.93;;;15.60;;
19312;SDS011;9791;50.820;4.406;2022-11-20T03:43:46;29.55;;;15.60;;
19312;SDS011;9791;50.820;4.406;2022-11-20T03:46:12;22.67;;;14.20;;
19312;SDS011;9791;50.820;4.406;2022-11-20T03:48:38;28.73;;;15.68;;
19312;SDS011;9791;50.820;4.406;2022-11-20T03:51:14;27.60;;;15.70;;
19312;SDS011;9791;50.820;4.406;2022-11-20T03:53:41;30.13;;;16.13;;
19312;SDS011;9791;50.820;4.406;2022-11-20T03:56:07;31.00;;;16.45;;
19312;SDS011;9791;50.820;4.406;2022-11-20T03:58:34;29.58;;;16.63;;
19312;SDS011;9791;50.820;4.406;2022-11-20T04:03:36;29.25;;;17.25;;
19312;SDS011;9791;50.820;4.406;2022-11-20T04:06:03;29.08;;;16.90;;
19312;SDS011;9791;50.820;4.406;2022-11-20T04:08:29;30.08;;;16.38;;
19312;SDS011;9791;50.820;4.406;2022-11-20T04:10:56;32.90;;;18.93;;
19312;SDS011;9791;50.820;4.406;2022-11-20T04:13:21;33.05;;;17.63;;
19312;SDS011;9791;50.820;4.406;2022-11-20T04:15:47;35.17;;;17.02;;
19312;SDS011;9791;50.820;4.406;2022-11-20T04:18:13;32.58;;;17.23;;
19312;SDS011;9791;50.820;4.406;2022-11-20T04:20:39;36.97;;;18.65;;
19312;SDS011;9791;50.820;4.406;2022-11-20T04:23:06;34.83;;;17.13;;
19312;SDS011;9791;50.820;4.406;2022-11-20T04:25:32;32.25;;;18.38;;
19312;SDS011;9791;50.820;4.406;2022-11-20T04:27:58;37.35;;;18.88;;
19312;SDS011;9791;50.820;4.406;2022-11-20T04:30:24;34.05;;;18.98;;
19312;SDS011;9791;50.820;4.406;2022-11-20T04:32:50;33.22;;;18.20;;
19312;SDS011;9791;50.820;4.406;2022-11-20T04:35:16;36.05;;;18.77;;
19312;SDS011;9791;50.820;4.406;2022-11-20T04:37:42;34.90;;;18.75;;
19312;SDS011;9791;50.820;4.406;2022-11-20T04:40:08;39.50;;;18.75;;
19312;SDS011;9791;50.820;4.406;2022-11-20T04:42:34;35.00;;;19.73;;
19312;SDS011;9791;50.820;4.406;2022-11-20T04:45:00;34.45;;;18.90;;
19312;SDS011;9791;50.820;4.406;2022-11-20T04:47:26;38.75;;;20.65;;
19312;SDS011;9791;50.820;4.406;2022-11-20T04:49:52;37.97;;;19.30;;
19312;SDS011;9791;50.820;4.406;2022-11-20T04:52:18;35.28;;;18.88;;
19312;SDS011;9791;50.820;4.406;2022-11-20T04:54:47;35.97;;;19.42;;
19312;SDS011;9791;50.820;4.406;2022-11-20T04:57:13;34.95;;;19.05;;
19312;SDS011;9791;50.820;4.406;2022-11-20T04:59:39;34.58;;;19.38;;
19312;SDS011;9791;50.820;4.406;2022-11-20T05:02:05;45.30;;;21.92;;
19312;SDS011;9791;50.820;4.406;2022-11-20T05:04:31;42.03;;;20.87;;
19312;SDS011;9791;50.820;4.406;2022-11-20T05:06:57;46.20;;;22.27;;
19312;SDS011;9791;50.820;4.406;2022-11-20T05:09:23;43.87;;;20.47;;
19312;SDS011;9791;50.820;4.406;2022-11-20T05:11:49;41.97;;;20.63;;
19312;SDS011;9791;50.820;4.406;2022-11-20T05:14:15;41.83;;;21.67;;
19312;SDS011;9791;50.820;4.406;2022-11-20T05:16:41;43.97;;;21.30;;
19312;SDS011;9791;50.820;4.406;2022-11-20T05:19:07;45.43;;;21.97;;
19312;SDS011;9791;50.820;4.406;2022-11-20T05:21:33;43.78;;;22.27;;
19312;SDS011;9791;50.820;4.406;2022-11-20T05:23:59;46.47;;;21.30;;
19312;SDS011;9791;50.820;4.406;2022-11-20T05:26:25;41.65;;;21.40;;
19312;SDS011;9791;50.820;4.406;2022-11-20T05:28:51;42.80;;;21.67;;
19312;SDS011;9791;50.820;4.406;2022-11-20T05:31:18;42.90;;;20.20;;
19312;SDS011;9791;50.820;4.406;2022-11-20T05:33:44;42.75;;;21.60;;
19312;SDS011;9791;50.820;4.406;2022-11-20T05:36:11;40.17;;;21.25;;
19312;SDS011;9791;50.820;4.406;2022-11-20T05:38:39;45.42;;;22.10;;
19312;SDS011;9791;50.820;4.406;2022-11-20T05:41:06;44.65;;;22.75;;
19312;SDS011;9791;50.820;4.406;2022-11-20T05:43:33;43.25;;;22.17;;
19312;SDS011;9791;50.820;4.406;2022-11-20T05:45:59;43.72;;;20.90;;
19312;SDS011;9791;50.820;4.406;2022-11-20T05:48:25;42.33;;;20.45;;
19312;SDS011;9791;50.820;4.406;2022-11-20T05:50:51;43.75;;;21.73;;
19312;SDS011;9791;50.820;4.406;2022-11-20T05:53:17;49.97;;;23.23;;
19312;SDS011;9791;50.820;4.406;2022-11-20T05:55:43;41.90;;;20.73;;
19312;SDS011;9791;50.820;4.406;2022-11-20T05:58:09;46.40;;;22.52;;
19312;SDS011;9791;50.820;4.406;2022-11-20T06:00:35;43.03;;;21.47;;
19312;SDS011;9791;50.820;4.406;2022-11-20T06:03:01;45.17;;;21.03;;
19312;SDS011;9791;50.820;4.406;2022-11-20T06:05:27;47.95;;;21.20;;
19312;SDS011;9791;50.820;4.406;2022-11-20T06:07:53;49.30;;;23.20;;
19312;SDS011;9791;50.820;4.406;2022-11-20T06:10:19;49.80;;;22.90;;
19312;SDS011;9791;50.820;4.406;2022-11-20T06:12:45;51.88;;;22.77;;
19312;SDS011;9791;50.820;4.406;2022-11-20T06:15:11;49.67;;;24.65;;
19312;SDS011;9791;50.820;4.406;2022-11-20T06:17:37;51.67;;;23.15;;
19312;SDS011;9791;50.820;4.406;2022-11-20T06:20:03;51.20;;;23.90;;
19312;SDS011;9791;50.820;4.406;2022-11-20T06:22:29;49.55;;;22.25;;
19312;SDS011;9791;50.820;4.406;2022-11-20T06:24:55;51.80;;;21.92;;
19312;SDS011;9791;50.820;4.406;2022-11-20T06:27:21;52.87;;;22.00;;
19312;SDS011;9791;50.820;4.406;2022-11-20T06:29:47;46.93;;;22.50;;
19312;SDS011;9791;50.820;4.406;2022-11-20T06:32:13;47.10;;;22.63;;
19312;SDS011;9791;50.820;4.406;2022-11-20T06:34:39;50.67;;;23.83;;
19312;SDS011;9791;50.820;4.406;2022-11-20T06:37:06;48.17;;;23.40;;
19312;SDS011;9791;50.820;4.406;2022-11-20T06:39:32;50.30;;;22.65;;
19312;SDS011;9791;50.820;4.406;2022-11-20T06:41:58;54.35;;;23.48;;
19312;SDS011;9791;50.820;4.406;2022-11-20T06:44:24;50.88;;;22.20;;
19312;SDS011;9791;50.820;4.406;2022-11-20T06:46:50;52.33;;;22.80;;
19312;SDS011;9791;50.820;4.406;2022-11-20T06:49:16;46.80;;;21.27;;
19312;SDS011;9791;50.820;4.406;2022-11-20T06:51:42;44.88;;;22.40;;
19312;SDS011;9791;50.820;4.406;2022-11-20T06:54:08;44.60;;;21.92;;
19312;SDS011;9791;50.820;4.406;2022-11-20T06:56:34;47.42;;;21.27;;
19312;SDS011;9791;50.820;4.406;2022-11-20T06:59:03;52.47;;;23.70;;
19312;SDS011;9791;50.820;4.406;2022-11-20T07:01:30;46.38;;;22.40;;
19312;SDS011;9791;50.820;4.406;2022-11-20T07:03:56;49.30;;;22.88;;
19312;SDS011;9791;50.820;4.406;2022-11-20T07:06:21;48.30;;;22.93;;
19312;SDS011;9791;50.820;4.406;2022-11-20T07:08:49;47.42;;;22.30;;
19312;SDS011;9791;50.820;4.406;2022-11-20T07:11:16;46.47;;;21.73;;
19312;SDS011;9791;50.820;4.406;2022-11-20T07:13:42;47.67;;;21.92;;
19312;SDS011;9791;50.820;4.406;2022-11-20T07:16:08;48.13;;;22.67;;
19312;SDS011;9791;50.820;4.406;2022-11-20T07:18:34;47.00;;;22.98;;
19312;SDS011;9791;50.820;4.406;2022-11-20T07:21:01;47.50;;;21.73;;
19312;SDS011;9791;50.820;4.406;2022-11-20T07:23:27;48.17;;;21.63;;
19312;SDS011;9791;50.820;4.406;2022-11-20T07:25:53;45.70;;;22.35;;
19312;SDS011;9791;50.820;4.406;2022-11-20T07:28:19;48.87;;;22.50;;
19312;SDS011;9791;50.820;4.406;2022-11-20T07:30:51;49.40;;;22.08;;
19312;SDS011;9791;50.820;4.406;2022-11-20T07:33:18;47.92;;;22.23;;
19312;SDS011;9791;50.820;4.406;2022-11-20T07:35:44;43.60;;;21.77;;
19312;SDS011;9791;50.820;4.406;2022-11-20T07:38:10;44.30;;;21.00;;
19312;SDS011;9791;50.820;4.406;2022-11-20T07:40:36;48.83;;;23.27;;
19312;SDS011;9791;50.820;4.406;2022-11-20T07:43:02;43.55;;;20.88;;
19312;SDS011;9791;50.820;4.406;2022-11-20T07:45:28;48.92;;;21.88;;
19312;SDS011;9791;50.820;4.406;2022-11-20T07:47:54;46.45;;;22.15;;
19312;SDS011;9791;50.820;4.406;2022-11-20T07:50:20;53.65;;;23.67;;
19312;SDS011;9791;50.820;4.406;2022-11-20T07:52:46;48.92;;;24.50;;
19312;SDS011;9791;50.820;4.406;2022-11-20T07:55:13;51.20;;;23.13;;
19312;SDS011;9791;50.820;4.406;2022-11-20T07:57:39;50.25;;;22.60;;
19312;SDS011;9791;50.820;4.406;2022-11-20T08:00:05;51.45;;;22.40;;
19312;SDS011;9791;50.820;4.406;2022-11-20T08:02:34;43.22;;;21.08;;
19312;SDS011;9791;50.820;4.406;2022-11-20T08:05:00;46.05;;;20.85;;
19312;SDS011;9791;50.820;4.406;2022-11-20T08:07:26;51.20;;;22.13;;
19312;SDS011;9791;50.820;4.406;2022-11-20T08:09:51;53.38;;;22.58;;
19312;SDS011;9791;50.820;4.406;2022-11-20T08:12:18;40.63;;;21.15;;
19312;SDS011;9791;50.820;4.406;2022-11-20T08:15:04;46.67;;;21.08;;
19312;SDS011;9791;50.820;4.406;2022-11-20T08:17:30;47.67;;;21.10;;
19312;SDS011;9791;50.820;4.406;2022-11-20T08:19:56;48.90;;;20.88;;
19312;SDS011;9791;50.820;4.406;2022-11-20T08:22:22;45.30;;;21.08;;
19312;SDS011;9791;50.820;4.406;2022-11-20T08:24:48;46.60;;;22.10;;
19312;SDS011;9791;50.820;4.406;2022-11-20T08:27:14;43.28;;;21.02;;
19312;SDS011;9791;50.820;4.406;2022-11-20T08:29:40;48.58;;;21.02;;
19312;SDS011;9791;50.820;4.406;2022-11-20T08:32:06;44.88;;;21.00;;
19312;SDS011;9791;50.820;4.406;2022-11-20T08:34:32;44.75;;;20.50;;
19312;SDS011;9791;50.820;4.406;2022-11-20T08:36:58;44.78;;;19.27;;
19312;SDS011;9791;50.820;4.406;2022-11-20T08:39:24;43.95;;;21.73;;
19312;SDS011;9791;50.820;4.406;2022-11-20T08:41:50;42.40;;;20.83;;
19312;SDS011;9791;50.820;4.406;2022-11-20T08:44:16;43.80;;;20.52;;
19312;SDS011;9791;50.820;4.406;2022-11-20T08:46:42;38.05;;;20.00;;
19312;SDS011;9791;50.820;4.406;2022-11-20T08:49:09;42.40;;;20.70;;
19312;SDS011;9791;50.820;4.406;2022-11-20T08:51:36;52.63;;;20.75;;
19312;SDS011;9791;50.820;4.406;2022-11-20T08:54:02;39.88;;;19.23;;
19312;SDS011;9791;50.820;4.406;2022-11-20T08:56:28;40.83;;;18.40;;
19312;SDS011;9791;50.820;4.406;2022-11-20T08:58:54;38.15;;;19.35;;
19312;SDS011;9791;50.820;4.406;2022-11-20T09:01:21;41.42;;;19.30;;
19312;SDS011;9791;50.820;4.406;2022-11-20T09:03:48;40.63;;;19.48;;
19312;SDS011;9791;50.820;4.406;2022-11-20T09:06:14;39.05;;;19.60;;
19312;SDS011;9791;50.820;4.406;2022-11-20T09:08:40;40.47;;;19.25;;
19312;SDS011;9791;50.820;4.406;2022-11-20T09:11:06;37.35;;;18.75;;
19312;SDS011;9791;50.820;4.406;2022-11-20T09:13:33;39.28;;;18.80;;
19312;SDS011;9791;50.820;4.406;2022-11-20T09:16:00;35.63;;;18.20;;
19312;SDS011;9791;50.820;4.406;2022-11-20T09:18:27;33.75;;;16.65;;
19312;SDS011;9791;50.820;4.406;2022-11-20T09:20:56;32.50;;;17.38;;
19312;SDS011;9791;50.820;4.406;2022-11-20T09:23:23;31.70;;;16.92;;
19312;SDS011;9791;50.820;4.406;2022-11-20T09:25:49;32.08;;;16.58;;
19312;SDS011;9791;50.820;4.406;2022-11-20T09:28:15;27.80;;;16.17;;
19312;SDS011;9791;50.820;4.406;2022-11-20T09:30:43;27.77;;;15.50;;
19312;SDS011;9791;50.820;4.406;2022-11-20T09:33:09;30.02;;;16.25;;
19312;SDS011;9791;50.820;4.406;2022-11-20T09:35:35;26.02;;;15.23;;
19312;SDS011;9791;50.820;4.406;2022-11-20T09:38:05;24.15;;;13.77;;
19312;SDS011;9791;50.820;4.406;2022-11-20T09:40:31;28.30;;;13.88;;
19312;SDS011;9791;50.820;4.406;2022-11-20T09:45:44;25.55;;;12.95;;
19312;SDS011;9791;50.820;4.406;2022-11-20T09:51:05;24.05;;;11.85;;
19312;SDS011;9791;50.820;4.406;2022-11-20T09:56:14;20.15;;;11.10;;
19312;SDS011;9791;50.820;4.406;2022-11-20T09:58:42;17.92;;;10.75;;
19312;SDS011;9791;50.820;4.406;2022-11-20T10:01:20;16.90;;;9.55;;
19312;SDS011;9791;50.820;4.406;2022-11-20T10:03:54;18.60;;;10.38;;
19312;SDS011;9791;50.820;4.406;2022-11-20T10:06:24;18.70;;;10.10;;
19312;SDS011;9791;50.820;4.406;2022-11-20T10:09:01;17.65;;;10.27;;
19312;SDS011;9791;50.820;4.406;2022-11-20T10:11:33;17.23;;;8.68;;
19312;SDS011;9791;50.820;4.406;2022-11-20T10:22:27;19.30;;;8.60;;
19312;SDS011;9791;50.820;4.406;2022-11-20T10:29:47;15.35;;;7.65;;
19312;SDS011;9791;50.820;4.406;2022-11-20T10:32:14;11.45;;;6.55;;
19312;SDS011;9791;50.820;4.406;2022-11-20T10:37:41;10.85;;;5.78;;
19312;SDS011;9791;50.820;4.406;2022-11-20T10:40:18;10.75;;;5.28;;
19312;SDS011;9791;50.820;4.406;2022-11-20T10:42:53;11.90;;;5.68;;
19312;SDS011;9791;50.820;4.406;2022-11-20T10:47:52;11.50;;;4.53;;
19312;SDS011;9791;50.820;4.406;2022-11-20T10:50:20;7.63;;;3.80;;
19312;SDS011;9791;50.820;4.406;2022-11-20T10:53:00;9.57;;;3.55;;
19312;SDS011;9791;50.820;4.406;2022-11-20T10:55:39;8.32;;;2.78;;
19312;SDS011;9791;50.820;4.406;2022-11-20T10:58:13;6.07;;;2.65;;
19312;SDS011;9791;50.820;4.406;2022-11-20T11:00:39;7.68;;;2.97;;
19312;SDS011;9791;50.820;4.406;2022-11-20T11:03:25;9.15;;;3.03;;
19312;SDS011;9791;50.820;4.406;2022-11-20T11:06:14;8.00;;;2.85;;
19312;SDS011;9791;50.820;4.406;2022-11-20T11:08:41;6.53;;;2.78;;
19312;SDS011;9791;50.820;4.406;2022-11-20T11:11:12;8.57;;;2.80;;
19312;SDS011;9791;50.820;4.406;2022-11-20T11:13:41;10.82;;;2.58;;
19312;SDS011;9791;50.820;4.406;2022-11-20T11:16:16;8.20;;;2.33;;
19312;SDS011;9791;50.820;4.406;2022-11-20T11:18:45;8.52;;;2.47;;
19312;SDS011;9791;50.820;4.406;2022-11-20T11:21:11;6.35;;;2.38;;
19312;SDS011;9791;50.820;4.406;2022-11-20T11:23:41;6.72;;;2.70;;
19312;SDS011;9791;50.820;4.406;2022-11-20T11:26:18;6.88;;;2.60;;
19312;SDS011;9791;50.820;4.406;2022-11-20T11:31:27;7.00;;;2.10;;
19312;SDS011;9791;50.820;4.406;2022-11-20T11:34:15;5.60;;;2.55;;
19312;SDS011;9791;50.820;4.406;2022-11-20T11:36:39;6.55;;;2.30;;
19312;SDS011;9791;50.820;4.406;2022-11-20T11:39:06;9.43;;;2.50;;
19312;SDS011;9791;50.820;4.406;2022-11-20T11:41:36;7.72;;;2.00;;
19312;SDS011;9791;50.820;4.406;2022-11-20T11:44:21;3.92;;;1.80;;
19312;SDS011;9791;50.820;4.406;2022-11-20T11:49:46;7.30;;;2.35;;
19312;SDS011;9791;50.820;4.406;2022-11-20T11:52:16;9.70;;;2.50;;
19312;SDS011;9791;50.820;4.406;2022-11-20T11:54:43;6.53;;;2.20;;
19312;SDS011;9791;50.820;4.406;2022-11-20T11:57:13;8.50;;;2.13;;
19312;SDS011;9791;50.820;4.406;2022-11-20T11:59:44;7.50;;;2.40;;
19312;SDS011;9791;50.820;4.406;2022-11-20T12:10:38;4.97;;;1.92;;
19312;SDS011;9791;50.820;4.406;2022-11-20T12:13:14;6.15;;;2.42;;
19312;SDS011;9791;50.820;4.406;2022-11-20T12:15:42;7.20;;;2.30;;
19312;SDS011;9791;50.820;4.406;2022-11-20T12:18:11;7.40;;;2.53;;
19312;SDS011;9791;50.820;4.406;2022-11-20T12:20:43;6.53;;;2.10;;
19312;SDS011;9791;50.820;4.406;2022-11-20T12:23:22;8.25;;;2.92;;
19312;SDS011;9791;50.820;4.406;2022-11-20T12:25:51;6.03;;;2.50;;
19312;SDS011;9791;50.820;4.406;2022-11-20T12:28:24;7.25;;;2.42;;
19312;SDS011;9791;50.820;4.406;2022-11-20T12:36:06;7.68;;;3.53;;
19312;SDS011;9791;50.820;4.406;2022-11-20T12:43:33;5.82;;;2.20;;
19312;SDS011;9791;50.820;4.406;2022-11-20T12:46:25;7.60;;;2.85;;
19312;SDS011;9791;50.820;4.406;2022-11-20T12:57:14;6.45;;;2.58;;
19312;SDS011;9791;50.820;4.406;2022-11-20T13:07:32;8.25;;;2.75;;
19312;SDS011;9791;50.820;4.406;2022-11-20T13:09:59;8.63;;;2.42;;
19312;SDS011;9791;50.820;4.406;2022-11-20T13:17:59;10.65;;;2.65;;
19312;SDS011;9791;50.820;4.406;2022-11-20T13:20:27;6.18;;;2.80;;
19312;SDS011;9791;50.820;4.406;2022-11-20T13:22:54;6.25;;;2.67;;
19312;SDS011;9791;50.820;4.406;2022-11-20T13:25:28;5.53;;;2.25;;
19312;SDS011;9791;50.820;4.406;2022-11-20T13:27:55;6.68;;;2.42;;
19312;SDS011;9791;50.820;4.406;2022-11-20T13:30:25;8.95;;;2.92;;
19312;SDS011;9791;50.820;4.406;2022-11-20T13:32:58;8.18;;;2.90;;
19312;SDS011;9791;50.820;4.406;2022-11-20T13:38:13;5.32;;;2.45;;
19312;SDS011;9791;50.820;4.406;2022-11-20T13:45:56;7.25;;;2.20;;
19312;SDS011;9791;50.820;4.406;2022-11-20T13:48:23;4.97;;;2.35;;
19312;SDS011;9791;50.820;4.406;2022-11-20T13:56:14;4.38;;;2.20;;
19312;SDS011;9791;50.820;4.406;2022-11-20T14:01:28;5.97;;;2.10;;
19312;SDS011;9791;50.820;4.406;2022-11-20T14:03:59;5.57;;;2.10;;
19312;SDS011;9791;50.820;4.406;2022-11-20T14:08:52;4.63;;;1.98;;
19312;SDS011;9791;50.820;4.406;2022-11-20T14:11:22;3.90;;;1.70;;
19312;SDS011;9791;50.820;4.406;2022-11-20T14:14:13;5.07;;;2.10;;
19312;SDS011;9791;50.820;4.406;2022-11-20T14:16:39;4.40;;;2.00;;
19312;SDS011;9791;50.820;4.406;2022-11-20T14:19:19;5.32;;;2.20;;
19312;SDS011;9791;50.820;4.406;2022-11-20T14:21:48;4.00;;;2.10;;
19312;SDS011;9791;50.820;4.406;2022-11-20T14:24:20;4.45;;;2.00;;
19312;SDS011;9791;50.820;4.406;2022-11-20T14:26:46;5.43;;;2.10;;
19312;SDS011;9791;50.820;4.406;2022-11-20T14:29:17;3.67;;;2.00;;
19312;SDS011;9791;50.820;4.406;2022-11-20T14:31:44;7.28;;;1.95;;
19312;SDS011;9791;50.820;4.406;2022-11-20T14:34:14;3.67;;;1.75;;
19312;SDS011;9791;50.820;4.406;2022-11-20T14:36:41;3.22;;;1.70;;
19312;SDS011;9791;50.820;4.406;2022-11-20T14:39:19;3.75;;;2.08;;
19312;SDS011;9791;50.820;4.406;2022-11-20T14:41:52;4.20;;;1.83;;
19312;SDS011;9791;50.820;4.406;2022-11-20T14:44:23;4.20;;;1.95;;
19312;SDS011;9791;50.820;4.406;2022-11-20T14:46:51;6.28;;;2.03;;
19312;SDS011;9791;50.820;4.406;2022-11-20T14:49:17;5.80;;;2.25;;
19312;SDS011;9791;50.820;4.406;2022-11-20T14:51:43;6.53;;;2.90;;
19312;SDS011;9791;50.820;4.406;2022-11-20T14:54:12;7.85;;;2.35;;
19312;SDS011;9791;50.820;4.406;2022-11-20T14:56:38;4.32;;;2.35;;
19312;SDS011;9791;50.820;4.406;2022-11-20T14:59:04;5.22;;;2.25;;
19312;SDS011;9791;50.820;4.406;2022-11-20T15:01:31;4.07;;;2.25;;
19312;SDS011;9791;50.820;4.406;2022-11-20T15:06:26;6.20;;;2.58;;
19312;SDS011;9791;50.820;4.406;2022-11-20T15:08:52;4.65;;;2.17;;
19312;SDS011;9791;50.820;4.406;2022-11-20T15:11:19;7.93;;;3.05;;
19312;SDS011;9791;50.820;4.406;2022-11-20T15:13:46;5.18;;;2.25;;
19312;SDS011;9791;50.820;4.406;2022-11-20T15:16:17;8.60;;;3.13;;
19312;SDS011;9791;50.820;4.406;2022-11-20T15:18:43;9.27;;;4.78;;
19312;SDS011;9791;50.820;4.406;2022-11-20T15:21:17;6.55;;;2.38;;
19312;SDS011;9791;50.820;4.406;2022-11-20T15:23:43;5.18;;;2.70;;
19312;SDS011;9791;50.820;4.406;2022-11-20T15:26:10;4.38;;;2.50;;
19312;SDS011;9791;50.820;4.406;2022-11-20T15:28:40;6.47;;;2.38;;
19312;SDS011;9791;50.820;4.406;2022-11-20T15:31:06;4.72;;;2.25;;
19312;SDS011;9791;50.820;4.406;2022-11-20T15:33:34;6.10;;;2.40;;
19312;SDS011;9791;50.820;4.406;2022-11-20T15:36:00;6.97;;;2.25;;
19312;SDS011;9791;50.820;4.406;2022-11-20T15:38:26;7.45;;;2.67;;
19312;SDS011;9791;50.820;4.406;2022-11-20T15:40:54;8.13;;;2.60;;
19312;SDS011;9791;50.820;4.406;2022-11-20T15:43:20;8.30;;;2.88;;
19312;SDS011;9791;50.820;4.406;2022-11-20T15:45:46;6.30;;;2.92;;
19312;SDS011;9791;50.820;4.406;2022-11-20T15:48:15;8.27;;;2.72;;
19312;SDS011;9791;50.820;4.406;2022-11-20T15:53:17;7.25;;;3.17;;
19312;SDS011;9791;50.820;4.406;2022-11-20T15:55:43;6.43;;;3.47;;
19312;SDS011;9791;50.820;4.406;2022-11-20T15:58:09;7.55;;;3.17;;
19312;SDS011;9791;50.820;4.406;2022-11-20T16:00:34;8.35;;;2.97;;
19312;SDS011;9791;50.820;4.406;2022-11-20T16:03:00;9.07;;;3.10;;
19312;SDS011;9791;50.820;4.406;2022-11-20T16:05:30;12.80;;;3.78;;
19312;SDS011;9791;50.820;4.406;2022-11-20T16:07:56;7.35;;;3.05;;
19312;SDS011;9791;50.820;4.406;2022-11-20T16:10:22;14.02;;;4.32;;
19312;SDS011;9791;50.820;4.406;2022-11-20T16:12:49;14.07;;;3.28;;
19312;SDS011;9791;50.820;4.406;2022-11-20T16:15:33;12.95;;;3.40;;
19312;SDS011;9791;50.820;4.406;2022-11-20T16:18:15;9.27;;;2.90;;
19312;SDS011;9791;50.820;4.406;2022-11-20T16:20:42;8.30;;;2.90;;
19312;SDS011;9791;50.820;4.406;2022-11-20T16:23:08;9.82;;;3.70;;
19312;SDS011;9791;50.820;4.406;2022-11-20T16:25:34;13.73;;;3.42;;
19312;SDS011;9791;50.820;4.406;2022-11-20T16:28:00;9.45;;;3.15;;
19312;SDS011;9791;50.820;4.406;2022-11-20T16:30:26;10.82;;;2.92;;
19312;SDS011;9791;50.820;4.406;2022-11-20T16:32:52;10.30;;;3.00;;